Phelps, WI (54554)

4:51 AM CDT on May 30, 2015 (GMT -0500)
RAWS | | Change Station
CLOSE
Current Station
Personal Weather Station
Location: Phelps, WI
Elevation: 1770 ft
Nearby Weather Stations
Active Advisory: Freeze Warning

Elev 1770 ft 46.04 °N, 89.10 °W | Updated 49 minutes ago

Overcast
Overcast
50 °F
Feels Like 49 °F
N
4
Wind Variable Wind from North
Gusts 9.0 mph

Today
High -- | Low -- °F
--% Chance of Precip.
Yesterday
High -- | Low -- °F
Precip. -- in
5:10 AM 8:37 PM
Waxing Gibbous, 89% visible
Pressure 30.06 in
Visibility 3.0 miles
Clouds Scattered Clouds 800 ft
Mostly Cloudy 1200 ft
Overcast 2300 ft
Windchill 49 °F
Dew Point 49 °F
Humidity 96%
Rainfall in
Snow Depth Not available.
UV 0 out of 12
Pollen 2.40 out of 12
Air Quality Not available.
Flu Activity Sporadic
METAR KLNL 300935Z AUTO 01008KT 3SM BR SCT008 BKN012 OVC023 10/09 A3006 RMK AO2 T00950087

More Conditions Fewer Conditions

Pressure 30.06 in
Visibility 3.0 miles
Clouds Scattered Clouds 800 ft
Mostly Cloudy 1200 ft
Overcast 2300 ft
Windchill 49 °F
Dew Point 49 °F
Humidity 96%
Rainfall in
Snow Depth Not available.
UV 0 out of 12
Pollen 2.40 out of 12
Air Quality Not available.
Flu Activity Sporadic
METAR KLNL 300935Z AUTO 01008KT 3SM BR SCT008 BKN012 OVC023 10/09 A3006 RMK AO2 T00950087

More Conditions Fewer Conditions

10-Day Weather Forecast

Almanac

Astronomy

May. 30, 2015 Rise Set
Actual Time
Civil Twilight
Nautical Twilight
Astronomical Twilight
Moon
Length of Visible Light
Length of Day
Tomorrow will be .
, % of the Moon is Illuminated

Today's Extremes

State Highs State Lows

Community

WunderPhotos

Upload Photos

1,825,476 photos uploaded!

WunderBlogs® & News

Nearby

Air Quality

  Air Quality AQ Index Pollutant
Not available.

Snow Depth

Station Depth Elevation

Earthquake Activity

City Distance Mag. Time & Date
Minimum magnitude displayed is 2.5.

Coastal Water Temperatures

Place Temperature

Stations

Nearby Weather Stations

Station Location Temp. Windchill Dew Point Humidity Wind Precip. Elev Updated Type
                   
Freeze Warning
Statement as of 4:10 AM CDT on May 30, 2015

... Freeze warning in effect from 3 am to 8 am CDT Sunday...

The National Weather Service in Green Bay has issued a freeze
warning... which is in effect from 3 am to 8 am CDT Sunday.

* Temperature... overnight low temperatures of 27 to 34 degrees are
expected.

* Impacts... temperatures this cold can kill cold-sensitive
vegetation.

Precautionary/preparedness actions...

A freeze warning means sub-freezing temperatures are expected.
These conditions will kill cold-sensitive vegetation. Where
possible... bring sensitive plants into a garage or shed overnight.
If that is not possible... cover them to protect them from the
cold.